sensor_id;sensor_type;location;lat;lon;timestamp;P1;durP1;ratioP1;P2;durP2;ratioP2
38162;SDS011;23977;53.078;18.248;2023-07-24T07:44:09;8.25;;;3.78;;
38162;SDS011;23977;53.078;18.248;2023-07-24T07:46:35;6.50;;;3.97;;
38162;SDS011;23977;53.078;18.248;2023-07-24T07:49:00;7.38;;;3.72;;
38162;SDS011;23977;53.078;18.248;2023-07-24T07:51:26;5.70;;;3.40;;
38162;SDS011;23977;53.078;18.248;2023-07-24T07:53:52;6.55;;;3.55;;
38162;SDS011;23977;53.078;18.248;2023-07-24T07:56:18;6.38;;;3.63;;
38162;SDS011;23977;53.078;18.248;2023-07-24T07:58:43;6.63;;;3.70;;
38162;SDS011;23977;53.078;18.248;2023-07-24T08:01:09;5.20;;;3.08;;
38162;SDS011;23977;53.078;18.248;2023-07-24T08:03:34;5.47;;;3.53;;
38162;SDS011;23977;53.078;18.248;2023-07-24T08:06:00;5.53;;;3.30;;
38162;SDS011;23977;53.078;18.248;2023-07-24T08:08:26;5.28;;;3.75;;
38162;SDS011;23977;53.078;18.248;2023-07-24T08:10:51;6.88;;;3.75;;
38162;SDS011;23977;53.078;18.248;2023-07-24T08:13:17;5.97;;;3.75;;
38162;SDS011;23977;53.078;18.248;2023-07-24T08:15:42;6.25;;;3.72;;
38162;SDS011;23977;53.078;18.248;2023-07-24T08:18:08;7.53;;;3.90;;
38162;SDS011;23977;53.078;18.248;2023-07-24T08:20:37;6.07;;;3.60;;
38162;SDS011;23977;53.078;18.248;2023-07-24T08:23:03;6.03;;;3.83;;
38162;SDS011;23977;53.078;18.248;2023-07-24T08:25:29;5.40;;;3.20;;
38162;SDS011;23977;53.078;18.248;2023-07-24T08:27:55;5.10;;;3.30;;
38162;SDS011;23977;53.078;18.248;2023-07-24T08:30:21;6.75;;;3.10;;
38162;SDS011;23977;53.078;18.248;2023-07-24T08:32:46;5.32;;;3.10;;
38162;SDS011;23977;53.078;18.248;2023-07-24T08:35:14;4.80;;;3.17;;
38162;SDS011;23977;53.078;18.248;2023-07-24T08:37:42;6.18;;;3.10;;
38162;SDS011;23977;53.078;18.248;2023-07-24T08:40:09;4.70;;;2.70;;
38162;SDS011;23977;53.078;18.248;2023-07-24T08:42:37;4.43;;;2.80;;
38162;SDS011;23977;53.078;18.248;2023-07-24T08:45:06;6.85;;;2.70;;
38162;SDS011;23977;53.078;18.248;2023-07-24T08:47:37;5.03;;;2.50;;
38162;SDS011;23977;53.078;18.248;2023-07-24T08:50:05;3.40;;;2.53;;
38162;SDS011;23977;53.078;18.248;2023-07-24T08:52:32;4.40;;;2.70;;
38162;SDS011;23977;53.078;18.248;2023-07-24T08:54:58;4.55;;;2.30;;
38162;SDS011;23977;53.078;18.248;2023-07-24T08:57:26;4.38;;;2.70;;
38162;SDS011;23977;53.078;18.248;2023-07-24T08:59:52;3.30;;;2.28;;
38162;SDS011;23977;53.078;18.248;2023-07-24T09:02:17;4.40;;;2.75;;
38162;SDS011;23977;53.078;18.248;2023-07-24T09:04:43;6.82;;;2.70;;
38162;SDS011;23977;53.078;18.248;2023-07-24T09:07:08;4.22;;;2.38;;
38162;SDS011;23977;53.078;18.248;2023-07-24T09:09:35;4.22;;;2.30;;
38162;SDS011;23977;53.078;18.248;2023-07-24T09:12:01;3.95;;;2.20;;
38162;SDS011;23977;53.078;18.248;2023-07-24T09:14:27;4.57;;;2.05;;
38162;SDS011;23977;53.078;18.248;2023-07-24T09:19:54;4.95;;;2.28;;
38162;SDS011;23977;53.078;18.248;2023-07-24T09:22:20;3.15;;;2.05;;
38162;SDS011;23977;53.078;18.248;2023-07-24T09:24:50;4.05;;;2.10;;
38162;SDS011;23977;53.078;18.248;2023-07-24T09:27:19;4.57;;;1.90;;
38162;SDS011;23977;53.078;18.248;2023-07-24T09:29:46;3.17;;;2.10;;
38162;SDS011;23977;53.078;18.248;2023-07-24T09:32:18;2.65;;;1.73;;
38162;SDS011;23977;53.078;18.248;2023-07-24T09:34:48;2.97;;;1.92;;
38162;SDS011;23977;53.078;18.248;2023-07-24T09:37:32;3.38;;;1.98;;
38162;SDS011;23977;53.078;18.248;2023-07-24T09:39:59;3.60;;;2.20;;
38162;SDS011;23977;53.078;18.248;2023-07-24T09:42:29;2.75;;;1.90;;
38162;SDS011;23977;53.078;18.248;2023-07-24T09:44:58;2.67;;;1.90;;
38162;SDS011;23977;53.078;18.248;2023-07-24T09:47:24;3.20;;;2.08;;
38162;SDS011;23977;53.078;18.248;2023-07-24T09:49:51;4.30;;;2.00;;
38162;SDS011;23977;53.078;18.248;2023-07-24T09:52:18;4.05;;;2.00;;
38162;SDS011;23977;53.078;18.248;2023-07-24T09:54:49;2.28;;;1.80;;
38162;SDS011;23977;53.078;18.248;2023-07-24T09:57:23;4.03;;;2.00;;
38162;SDS011;23977;53.078;18.248;2023-07-24T09:59:49;3.97;;;1.95;;
38162;SDS011;23977;53.078;18.248;2023-07-24T10:02:17;4.32;;;2.40;;
38162;SDS011;23977;53.078;18.248;2023-07-24T10:04:43;3.70;;;2.17;;
38162;SDS011;23977;53.078;18.248;2023-07-24T10:07:09;3.97;;;2.10;;
38162;SDS011;23977;53.078;18.248;2023-07-24T10:09:36;4.25;;;2.20;;
38162;SDS011;23977;53.078;18.248;2023-07-24T10:12:05;3.35;;;2.42;;
38162;SDS011;23977;53.078;18.248;2023-07-24T10:14:31;3.22;;;2.10;;
38162;SDS011;23977;53.078;18.248;2023-07-24T10:16:57;3.08;;;2.13;;
38162;SDS011;23977;53.078;18.248;2023-07-24T10:19:23;4.43;;;2.35;;
38162;SDS011;23977;53.078;18.248;2023-07-24T10:21:48;3.20;;;2.20;;
38162;SDS011;23977;53.078;18.248;2023-07-24T10:24:16;4.30;;;2.10;;
38162;SDS011;23977;53.078;18.248;2023-07-24T10:26:41;3.28;;;2.15;;
38162;SDS011;23977;53.078;18.248;2023-07-24T10:29:08;3.97;;;2.33;;
38162;SDS011;23977;53.078;18.248;2023-07-24T10:31:35;5.03;;;2.20;;
38162;SDS011;23977;53.078;18.248;2023-07-24T10:34:04;3.30;;;2.25;;
38162;SDS011;23977;53.078;18.248;2023-07-24T10:36:33;3.85;;;2.33;;
38162;SDS011;23977;53.078;18.248;2023-07-24T10:39:00;3.97;;;2.15;;
38162;SDS011;23977;53.078;18.248;2023-07-24T10:41:37;3.70;;;2.22;;
38162;SDS011;23977;53.078;18.248;2023-07-24T10:44:03;3.53;;;2.25;;
38162;SDS011;23977;53.078;18.248;2023-07-24T10:46:36;4.07;;;2.10;;
38162;SDS011;23977;53.078;18.248;2023-07-24T10:49:03;3.70;;;2.20;;
38162;SDS011;23977;53.078;18.248;2023-07-24T10:51:31;4.45;;;2.10;;
38162;SDS011;23977;53.078;18.248;2023-07-24T10:54:03;4.80;;;2.08;;
38162;SDS011;23977;53.078;18.248;2023-07-24T10:56:30;5.90;;;2.47;;
38162;SDS011;23977;53.078;18.248;2023-07-24T10:58:55;5.10;;;2.47;;
38162;SDS011;23977;53.078;18.248;2023-07-24T11:01:21;5.25;;;2.50;;
38162;SDS011;23977;53.078;18.248;2023-07-24T11:03:49;5.57;;;2.50;;
38162;SDS011;23977;53.078;18.248;2023-07-24T11:06:16;4.18;;;2.15;;
38162;SDS011;23977;53.078;18.248;2023-07-24T11:08:52;4.15;;;2.30;;
38162;SDS011;23977;53.078;18.248;2023-07-24T11:11:21;4.30;;;2.33;;
38162;SDS011;23977;53.078;18.248;2023-07-24T11:13:49;4.40;;;2.40;;
38162;SDS011;23977;53.078;18.248;2023-07-24T11:16:14;3.85;;;2.15;;
38162;SDS011;23977;53.078;18.248;2023-07-24T11:18:47;3.75;;;2.47;;
38162;SDS011;23977;53.078;18.248;2023-07-24T11:21:13;7.32;;;2.35;;
38162;SDS011;23977;53.078;18.248;2023-07-24T11:23:51;3.83;;;2.38;;
38162;SDS011;23977;53.078;18.248;2023-07-24T11:26:22;3.60;;;2.20;;
38162;SDS011;23977;53.078;18.248;2023-07-24T11:28:49;4.25;;;2.60;;
38162;SDS011;23977;53.078;18.248;2023-07-24T11:31:16;4.97;;;2.67;;
38162;SDS011;23977;53.078;18.248;2023-07-24T11:33:45;4.25;;;2.45;;
38162;SDS011;23977;53.078;18.248;2023-07-24T11:36:11;3.75;;;2.47;;
38162;SDS011;23977;53.078;18.248;2023-07-24T11:38:38;6.25;;;2.67;;
38162;SDS011;23977;53.078;18.248;2023-07-24T11:41:04;4.25;;;2.45;;
38162;SDS011;23977;53.078;18.248;2023-07-24T11:43:30;4.80;;;2.60;;
38162;SDS011;23977;53.078;18.248;2023-07-24T11:45:55;3.38;;;2.47;;
38162;SDS011;23977;53.078;18.248;2023-07-24T11:48:22;4.78;;;2.80;;
38162;SDS011;23977;53.078;18.248;2023-07-24T11:50:50;3.92;;;2.60;;
38162;SDS011;23977;53.078;18.248;2023-07-24T11:53:22;4.32;;;2.67;;
38162;SDS011;23977;53.078;18.248;2023-07-24T11:55:58;4.03;;;2.38;;
38162;SDS011;23977;53.078;18.248;2023-07-24T11:58:28;4.43;;;2.30;;
38162;SDS011;23977;53.078;18.248;2023-07-24T12:00:55;4.07;;;2.40;;
38162;SDS011;23977;53.078;18.248;2023-07-24T12:03:24;4.00;;;2.10;;
38162;SDS011;23977;53.078;18.248;2023-07-24T12:05:52;4.10;;;2.00;;
38162;SDS011;23977;53.078;18.248;2023-07-24T12:08:29;5.20;;;2.38;;
38162;SDS011;23977;53.078;18.248;2023-07-24T12:10:59;4.72;;;2.38;;
38162;SDS011;23977;53.078;18.248;2023-07-24T12:13:25;5.40;;;2.60;;
38162;SDS011;23977;53.078;18.248;2023-07-24T12:15:50;4.65;;;2.00;;
38162;SDS011;23977;53.078;18.248;2023-07-24T12:18:16;4.28;;;2.08;;
38162;SDS011;23977;53.078;18.248;2023-07-24T12:20:42;4.15;;;2.00;;
38162;SDS011;23977;53.078;18.248;2023-07-24T12:23:08;4.65;;;2.00;;
38162;SDS011;23977;53.078;18.248;2023-07-24T12:25:33;3.10;;;2.00;;
38162;SDS011;23977;53.078;18.248;2023-07-24T12:27:59;2.70;;;1.80;;
38162;SDS011;23977;53.078;18.248;2023-07-24T12:30:24;3.00;;;1.90;;
38162;SDS011;23977;53.078;18.248;2023-07-24T12:32:50;3.35;;;2.22;;
38162;SDS011;23977;53.078;18.248;2023-07-24T12:35:16;3.17;;;1.90;;
38162;SDS011;23977;53.078;18.248;2023-07-24T12:37:43;3.95;;;1.90;;
38162;SDS011;23977;53.078;18.248;2023-07-24T12:40:10;3.50;;;1.75;;
38162;SDS011;23977;53.078;18.248;2023-07-24T12:42:36;3.10;;;1.90;;
38162;SDS011;23977;53.078;18.248;2023-07-24T12:45:02;4.28;;;2.00;;
38162;SDS011;23977;53.078;18.248;2023-07-24T12:47:29;3.28;;;2.10;;
38162;SDS011;23977;53.078;18.248;2023-07-24T12:49:56;3.35;;;2.10;;
38162;SDS011;23977;53.078;18.248;2023-07-24T12:52:23;4.10;;;2.30;;
38162;SDS011;23977;53.078;18.248;2023-07-24T12:54:49;4.78;;;1.88;;
38162;SDS011;23977;53.078;18.248;2023-07-24T12:57:15;3.45;;;2.10;;
38162;SDS011;23977;53.078;18.248;2023-07-24T12:59:41;4.82;;;2.25;;
38162;SDS011;23977;53.078;18.248;2023-07-24T13:02:07;5.00;;;2.30;;
38162;SDS011;23977;53.078;18.248;2023-07-24T13:04:33;3.28;;;1.92;;
38162;SDS011;23977;53.078;18.248;2023-07-24T13:06:58;5.00;;;2.10;;
38162;SDS011;23977;53.078;18.248;2023-07-24T13:09:25;3.58;;;2.22;;
38162;SDS011;23977;53.078;18.248;2023-07-24T13:11:51;3.25;;;2.08;;
38162;SDS011;23977;53.078;18.248;2023-07-24T13:14:19;3.60;;;2.10;;
38162;SDS011;23977;53.078;18.248;2023-07-24T13:16:46;3.20;;;2.00;;
38162;SDS011;23977;53.078;18.248;2023-07-24T13:19:11;3.75;;;2.22;;
38162;SDS011;23977;53.078;18.248;2023-07-24T13:21:37;4.18;;;2.28;;
38162;SDS011;23977;53.078;18.248;2023-07-24T13:24:05;4.18;;;2.13;;
38162;SDS011;23977;53.078;18.248;2023-07-24T13:26:32;3.65;;;2.20;;
38162;SDS011;23977;53.078;18.248;2023-07-24T13:28:57;3.33;;;2.10;;
38162;SDS011;23977;53.078;18.248;2023-07-24T13:31:23;3.80;;;2.30;;
38162;SDS011;23977;53.078;18.248;2023-07-24T13:33:49;3.42;;;2.05;;
38162;SDS011;23977;53.078;18.248;2023-07-24T13:36:14;3.03;;;1.88;;
38162;SDS011;23977;53.078;18.248;2023-07-24T13:38:40;4.22;;;2.10;;
38162;SDS011;23977;53.078;18.248;2023-07-24T13:41:06;4.03;;;2.17;;
38162;SDS011;23977;53.078;18.248;2023-07-24T13:43:33;3.78;;;2.25;;
38162;SDS011;23977;53.078;18.248;2023-07-24T13:45:59;3.10;;;2.03;;
38162;SDS011;23977;53.078;18.248;2023-07-24T13:48:27;7.07;;;2.45;;
38162;SDS011;23977;53.078;18.248;2023-07-24T13:50:53;4.07;;;2.30;;
38162;SDS011;23977;53.078;18.248;2023-07-24T13:53:18;4.10;;;2.30;;
38162;SDS011;23977;53.078;18.248;2023-07-24T13:55:44;4.20;;;2.30;;
38162;SDS011;23977;53.078;18.248;2023-07-24T13:58:09;5.05;;;2.40;;
38162;SDS011;23977;53.078;18.248;2023-07-24T14:00:35;3.42;;;2.22;;
38162;SDS011;23977;53.078;18.248;2023-07-24T14:03:01;3.40;;;2.45;;
38162;SDS011;23977;53.078;18.248;2023-07-24T14:05:27;3.63;;;2.20;;
38162;SDS011;23977;53.078;18.248;2023-07-24T14:07:53;6.72;;;2.95;;
38162;SDS011;23977;53.078;18.248;2023-07-24T14:10:19;3.60;;;2.40;;
38162;SDS011;23977;53.078;18.248;2023-07-24T14:12:44;3.30;;;2.40;;
38162;SDS011;23977;53.078;18.248;2023-07-24T14:15:12;4.28;;;2.50;;
38162;SDS011;23977;53.078;18.248;2023-07-24T14:17:37;6.13;;;2.80;;
38162;SDS011;23977;53.078;18.248;2023-07-24T14:20:03;6.20;;;3.05;;
38162;SDS011;23977;53.078;18.248;2023-07-24T14:22:30;4.20;;;2.72;;
38162;SDS011;23977;53.078;18.248;2023-07-24T14:24:56;5.32;;;2.70;;
38162;SDS011;23977;53.078;18.248;2023-07-24T14:27:21;5.40;;;3.00;;
38162;SDS011;23977;53.078;18.248;2023-07-24T14:29:47;5.57;;;2.90;;
38162;SDS011;23977;53.078;18.248;2023-07-24T14:32:12;4.75;;;2.63;;
38162;SDS011;23977;53.078;18.248;2023-07-24T14:34:38;4.03;;;2.70;;
38162;SDS011;23977;53.078;18.248;2023-07-24T14:37:04;5.13;;;3.00;;
38162;SDS011;23977;53.078;18.248;2023-07-24T14:39:30;5.10;;;3.55;;
38162;SDS011;23977;53.078;18.248;2023-07-24T14:41:55;4.80;;;3.80;;
38162;SDS011;23977;53.078;18.248;2023-07-24T14:44:21;6.18;;;3.65;;
38162;SDS011;23977;53.078;18.248;2023-07-24T14:46:47;6.38;;;4.00;;
38162;SDS011;23977;53.078;18.248;2023-07-24T14:49:13;6.18;;;3.63;;
38162;SDS011;23977;53.078;18.248;2023-07-24T14:51:38;5.82;;;3.80;;
38162;SDS011;23977;53.078;18.248;2023-07-24T14:54:04;6.75;;;3.75;;
38162;SDS011;23977;53.078;18.248;2023-07-24T14:56:32;7.05;;;3.88;;
38162;SDS011;23977;53.078;18.248;2023-07-24T14:58:57;6.50;;;4.40;;
38162;SDS011;23977;53.078;18.248;2023-07-24T15:01:23;5.80;;;4.30;;
38162;SDS011;23977;53.078;18.248;2023-07-24T15:03:49;6.55;;;4.63;;
38162;SDS011;23977;53.078;18.248;2023-07-24T15:06:14;6.88;;;4.35;;
38162;SDS011;23977;53.078;18.248;2023-07-24T15:08:40;7.53;;;4.43;;
38162;SDS011;23977;53.078;18.248;2023-07-24T15:11:05;5.75;;;4.55;;
38162;SDS011;23977;53.078;18.248;2023-07-24T15:13:31;6.88;;;4.72;;
38162;SDS011;23977;53.078;18.248;2023-07-24T15:15:57;10.82;;;5.00;;
38162;SDS011;23977;53.078;18.248;2023-07-24T15:18:23;6.35;;;4.38;;
38162;SDS011;23977;53.078;18.248;2023-07-24T15:20:49;6.18;;;4.25;;
38162;SDS011;23977;53.078;18.248;2023-07-24T15:23:15;6.30;;;4.40;;
38162;SDS011;23977;53.078;18.248;2023-07-24T15:25:40;7.10;;;4.32;;
38162;SDS011;23977;53.078;18.248;2023-07-24T15:28:06;6.00;;;4.20;;
38162;SDS011;23977;53.078;18.248;2023-07-24T15:30:32;5.15;;;4.00;;
38162;SDS011;23977;53.078;18.248;2023-07-24T15:32:58;6.00;;;4.15;;
38162;SDS011;23977;53.078;18.248;2023-07-24T15:35:24;5.63;;;4.00;;
38162;SDS011;23977;53.078;18.248;2023-07-24T15:37:50;6.47;;;4.10;;
38162;SDS011;23977;53.078;18.248;2023-07-24T15:40:15;5.28;;;3.47;;
38162;SDS011;23977;53.078;18.248;2023-07-24T15:42:41;9.75;;;3.50;;
38162;SDS011;23977;53.078;18.248;2023-07-24T15:45:07;9.13;;;3.42;;
38162;SDS011;23977;53.078;18.248;2023-07-24T15:47:33;4.55;;;2.92;;
38162;SDS011;23977;53.078;18.248;2023-07-24T15:49:59;5.28;;;3.40;;
38162;SDS011;23977;53.078;18.248;2023-07-24T15:52:27;5.90;;;3.30;;
38162;SDS011;23977;53.078;18.248;2023-07-24T15:54:53;7.30;;;2.97;;
38162;SDS011;23977;53.078;18.248;2023-07-24T15:57:20;4.32;;;3.08;;
38162;SDS011;23977;53.078;18.248;2023-07-24T15:59:45;4.80;;;3.10;;
38162;SDS011;23977;53.078;18.248;2023-07-24T16:02:11;4.53;;;2.80;;
38162;SDS011;23977;53.078;18.248;2023-07-24T16:04:37;8.35;;;3.10;;
38162;SDS011;23977;53.078;18.248;2023-07-24T16:07:02;4.88;;;2.90;;
38162;SDS011;23977;53.078;18.248;2023-07-24T16:09:28;3.50;;;2.63;;
38162;SDS011;23977;53.078;18.248;2023-07-24T16:11:54;3.95;;;2.80;;
38162;SDS011;23977;53.078;18.248;2023-07-24T16:14:19;4.97;;;2.88;;
38162;SDS011;23977;53.078;18.248;2023-07-24T16:16:45;7.90;;;2.80;;
38162;SDS011;23977;53.078;18.248;2023-07-24T16:19:18;4.82;;;2.90;;
38162;SDS011;23977;53.078;18.248;2023-07-24T16:21:48;4.32;;;2.80;;
38162;SDS011;23977;53.078;18.248;2023-07-24T16:24:15;5.78;;;2.97;;
38162;SDS011;23977;53.078;18.248;2023-07-24T16:26:43;6.20;;;2.80;;
38162;SDS011;23977;53.078;18.248;2023-07-24T16:29:09;4.28;;;2.90;;
38162;SDS011;23977;53.078;18.248;2023-07-24T16:31:35;6.70;;;2.80;;
38162;SDS011;23977;53.078;18.248;2023-07-24T16:34:01;4.32;;;3.33;;
38162;SDS011;23977;53.078;18.248;2023-07-24T16:36:29;5.18;;;3.38;;
38162;SDS011;23977;53.078;18.248;2023-07-24T16:39:03;5.20;;;3.13;;
38162;SDS011;23977;53.078;18.248;2023-07-24T16:41:30;4.78;;;2.90;;
38162;SDS011;23977;53.078;18.248;2023-07-24T16:43:56;5.43;;;3.00;;
38162;SDS011;23977;53.078;18.248;2023-07-24T16:46:22;4.43;;;3.25;;
38162;SDS011;23977;53.078;18.248;2023-07-24T16:48:48;6.43;;;3.38;;
38162;SDS011;23977;53.078;18.248;2023-07-24T16:51:14;6.40;;;3.38;;
38162;SDS011;23977;53.078;18.248;2023-07-24T16:53:40;5.95;;;3.78;;
38162;SDS011;23977;53.078;18.248;2023-07-24T16:56:07;5.40;;;3.55;;
38162;SDS011;23977;53.078;18.248;2023-07-24T16:58:32;5.63;;;3.65;;
38162;SDS011;23977;53.078;18.248;2023-07-24T17:00:59;7.05;;;3.70;;
38162;SDS011;23977;53.078;18.248;2023-07-24T17:03:26;7.10;;;3.58;;
38162;SDS011;23977;53.078;18.248;2023-07-24T17:05:52;17.48;;;3.90;;
38162;SDS011;23977;53.078;18.248;2023-07-24T17:08:17;5.65;;;3.60;;
38162;SDS011;23977;53.078;18.248;2023-07-24T17:10:44;5.55;;;3.58;;
38162;SDS011;23977;53.078;18.248;2023-07-24T17:13:11;6.13;;;4.10;;
38162;SDS011;23977;53.078;18.248;2023-07-24T17:15:37;7.28;;;3.88;;
38162;SDS011;23977;53.078;18.248;2023-07-24T17:18:03;10.52;;;5.97;;
38162;SDS011;23977;53.078;18.248;2023-07-24T17:20:29;6.55;;;4.30;;
38162;SDS011;23977;53.078;18.248;2023-07-24T17:22:55;7.18;;;4.03;;
38162;SDS011;23977;53.078;18.248;2023-07-24T17:25:21;6.30;;;4.40;;
38162;SDS011;23977;53.078;18.248;2023-07-24T17:27:47;8.70;;;4.57;;
38162;SDS011;23977;53.078;18.248;2023-07-24T17:30:12;10.15;;;4.70;;
38162;SDS011;23977;53.078;18.248;2023-07-24T17:32:38;8.65;;;4.60;;
38162;SDS011;23977;53.078;18.248;2023-07-24T17:35:04;8.48;;;4.63;;
38162;SDS011;23977;53.078;18.248;2023-07-24T17:37:30;8.77;;;4.60;;
38162;SDS011;23977;53.078;18.248;2023-07-24T17:40:01;10.32;;;4.43;;
38162;SDS011;23977;53.078;18.248;2023-07-24T17:42:28;8.43;;;4.80;;
38162;SDS011;23977;53.078;18.248;2023-07-24T17:44:55;9.57;;;5.35;;
38162;SDS011;23977;53.078;18.248;2023-07-24T17:47:21;10.93;;;5.93;;
38162;SDS011;23977;53.078;18.248;2023-07-24T17:49:47;21.02;;;8.82;;
38162;SDS011;23977;53.078;18.248;2023-07-24T17:52:12;13.02;;;6.20;;
38162;SDS011;23977;53.078;18.248;2023-07-24T17:54:38;13.65;;;6.10;;
38162;SDS011;23977;53.078;18.248;2023-07-24T17:57:07;16.85;;;7.95;;
38162;SDS011;23977;53.078;18.248;2023-07-24T17:59:32;9.65;;;6.03;;
38162;SDS011;23977;53.078;18.248;2023-07-24T18:01:58;8.30;;;5.05;;
38162;SDS011;23977;53.078;18.248;2023-07-24T18:04:23;6.55;;;4.57;;
38162;SDS011;23977;53.078;18.248;2023-07-24T18:06:49;7.43;;;4.15;;
38162;SDS011;23977;53.078;18.248;2023-07-24T18:09:15;7.80;;;4.30;;
38162;SDS011;23977;53.078;18.248;2023-07-24T18:11:41;5.55;;;4.10;;
38162;SDS011;23977;53.078;18.248;2023-07-24T18:14:07;8.13;;;4.45;;
38162;SDS011;23977;53.078;18.248;2023-07-24T18:16:32;8.68;;;4.68;;
38162;SDS011;23977;53.078;18.248;2023-07-24T18:18:58;7.05;;;4.22;;
38162;SDS011;23977;53.078;18.248;2023-07-24T18:21:23;6.13;;;4.03;;
38162;SDS011;23977;53.078;18.248;2023-07-24T18:23:49;6.70;;;4.57;;
38162;SDS011;23977;53.078;18.248;2023-07-24T18:26:15;8.50;;;5.65;;
38162;SDS011;23977;53.078;18.248;2023-07-24T18:28:40;18.08;;;11.05;;
38162;SDS011;23977;53.078;18.248;2023-07-24T18:31:06;22.00;;;11.93;;
38162;SDS011;23977;53.078;18.248;2023-07-24T18:33:32;18.08;;;10.52;;
38162;SDS011;23977;53.078;18.248;2023-07-24T18:35:57;23.73;;;11.55;;
38162;SDS011;23977;53.078;18.248;2023-07-24T18:38:23;20.10;;;10.02;;
38162;SDS011;23977;53.078;18.248;2023-07-24T18:40:49;29.75;;;9.45;;
38162;SDS011;23977;53.078;18.248;2023-07-24T18:43:14;22.38;;;9.68;;
38162;SDS011;23977;53.078;18.248;2023-07-24T18:45:40;23.40;;;9.50;;
38162;SDS011;23977;53.078;18.248;2023-07-24T18:48:06;24.48;;;8.25;;
38162;SDS011;23977;53.078;18.248;2023-07-24T18:50:33;15.88;;;6.10;;
38162;SDS011;23977;53.078;18.248;2023-07-24T18:52:59;8.15;;;4.50;;
38162;SDS011;23977;53.078;18.248;2023-07-24T18:55:24;6.85;;;4.10;;
38162;SDS011;23977;53.078;18.248;2023-07-24T18:57:50;4.57;;;3.30;;
38162;SDS011;23977;53.078;18.248;2023-07-24T19:00:16;6.57;;;3.10;;
38162;SDS011;23977;53.078;18.248;2023-07-24T19:02:43;6.93;;;3.22;;
38162;SDS011;23977;53.078;18.248;2023-07-24T19:05:09;6.43;;;3.08;;
38162;SDS011;23977;53.078;18.248;2023-07-24T19:07:35;3.90;;;2.72;;
38162;SDS011;23977;53.078;18.248;2023-07-24T19:10:01;4.75;;;2.60;;
38162;SDS011;23977;53.078;18.248;2023-07-24T19:12:26;5.18;;;2.80;;
38162;SDS011;23977;53.078;18.248;2023-07-24T19:14:52;4.15;;;2.40;;
38162;SDS011;23977;53.078;18.248;2023-07-24T19:17:18;5.38;;;2.42;;
38162;SDS011;23977;53.078;18.248;2023-07-24T19:19:43;6.28;;;2.33;;
38162;SDS011;23977;53.078;18.248;2023-07-24T19:22:09;6.53;;;2.60;;
38162;SDS011;23977;53.078;18.248;2023-07-24T19:24:35;5.43;;;2.40;;
38162;SDS011;23977;53.078;18.248;2023-07-24T19:27:01;4.25;;;2.40;;
38162;SDS011;23977;53.078;18.248;2023-07-24T19:29:27;3.45;;;2.40;;
38162;SDS011;23977;53.078;18.248;2023-07-24T19:31:52;6.45;;;2.40;;
38162;SDS011;23977;53.078;18.248;2023-07-24T19:34:18;4.50;;;2.58;;
38162;SDS011;23977;53.078;18.248;2023-07-24T19:36:44;3.95;;;2.40;;
38162;SDS011;23977;53.078;18.248;2023-07-24T19:39:10;4.32;;;2.15;;
38162;SDS011;23977;53.078;18.248;2023-07-24T19:41:35;5.88;;;2.28;;
38162;SDS011;23977;53.078;18.248;2023-07-24T19:44:01;4.57;;;2.28;;
38162;SDS011;23977;53.078;18.248;2023-07-24T19:46:27;3.58;;;2.15;;
38162;SDS011;23977;53.078;18.248;2023-07-24T19:48:52;6.07;;;2.13;;
38162;SDS011;23977;53.078;18.248;2023-07-24T19:51:18;4.45;;;2.10;;
38162;SDS011;23977;53.078;18.248;2023-07-24T19:53:44;4.50;;;2.00;;
38162;SDS011;23977;53.078;18.248;2023-07-24T19:56:10;4.40;;;2.30;;
38162;SDS011;23977;53.078;18.248;2023-07-24T19:58:36;4.18;;;2.00;;
38162;SDS011;23977;53.078;18.248;2023-07-24T20:01:02;4.07;;;2.20;;
38162;SDS011;23977;53.078;18.248;2023-07-24T20:03:29;4.93;;;2.28;;
38162;SDS011;23977;53.078;18.248;2023-07-24T20:05:56;4.28;;;2.10;;
38162;SDS011;23977;53.078;18.248;2023-07-24T20:08:22;3.80;;;2.00;;
38162;SDS011;23977;53.078;18.248;2023-07-24T20:10:49;3.92;;;2.03;;
38162;SDS011;23977;53.078;18.248;2023-07-24T20:13:15;4.43;;;2.00;;
38162;SDS011;23977;53.078;18.248;2023-07-24T20:15:42;4.47;;;2.20;;
38162;SDS011;23977;53.078;18.248;2023-07-24T20:18:08;3.60;;;2.00;;
38162;SDS011;23977;53.078;18.248;2023-07-24T20:20:34;4.65;;;2.28;;
38162;SDS011;23977;53.078;18.248;2023-07-24T20:23:00;5.28;;;2.00;;
38162;SDS011;23977;53.078;18.248;2023-07-24T20:25:27;5.95;;;2.50;;
38162;SDS011;23977;53.078;18.248;2023-07-24T20:27:53;3.92;;;2.05;;
38162;SDS011;23977;53.078;18.248;2023-07-24T20:30:19;5.30;;;2.30;;
38162;SDS011;23977;53.078;18.248;2023-07-24T20:32:45;3.78;;;2.30;;
38162;SDS011;23977;53.078;18.248;2023-07-24T20:35:10;3.92;;;1.83;;
38162;SDS011;23977;53.078;18.248;2023-07-24T20:37:36;4.90;;;2.03;;
38162;SDS011;23977;53.078;18.248;2023-07-24T20:40:02;3.90;;;2.17;;
38162;SDS011;23977;53.078;18.248;2023-07-24T20:42:29;3.47;;;2.15;;
38162;SDS011;23977;53.078;18.248;2023-07-24T20:44:55;5.82;;;2.25;;
38162;SDS011;23977;53.078;18.248;2023-07-24T20:47:22;3.95;;;2.10;;
38162;SDS011;23977;53.078;18.248;2023-07-24T20:49:48;3.45;;;2.15;;
38162;SDS011;23977;53.078;18.248;2023-07-24T20:52:14;4.10;;;2.20;;
38162;SDS011;23977;53.078;18.248;2023-07-24T20:54:39;3.65;;;1.98;;
38162;SDS011;23977;53.078;18.248;2023-07-24T20:57:07;3.15;;;1.77;;
38162;SDS011;23977;53.078;18.248;2023-07-24T20:59:33;4.68;;;2.30;;
38162;SDS011;23977;53.078;18.248;2023-07-24T21:01:59;4.32;;;2.00;;
38162;SDS011;23977;53.078;18.248;2023-07-24T21:04:24;3.78;;;2.00;;
38162;SDS011;23977;53.078;18.248;2023-07-24T21:06:50;7.38;;;2.20;;
38162;SDS011;23977;53.078;18.248;2023-07-24T21:09:16;5.35;;;1.92;;
38162;SDS011;23977;53.078;18.248;2023-07-24T21:11:42;4.10;;;2.00;;
38162;SDS011;23977;53.078;18.248;2023-07-24T21:14:07;4.82;;;2.28;;
38162;SDS011;23977;53.078;18.248;2023-07-24T21:16:33;5.47;;;2.10;;
38162;SDS011;23977;53.078;18.248;2023-07-24T21:18:58;3.80;;;2.00;;
38162;SDS011;23977;53.078;18.248;2023-07-24T21:21:24;6.55;;;2.25;;
38162;SDS011;23977;53.078;18.248;2023-07-24T21:23:50;4.25;;;2.10;;
38162;SDS011;23977;53.078;18.248;2023-07-24T21:26:16;4.55;;;2.30;;
38162;SDS011;23977;53.078;18.248;2023-07-24T21:28:42;3.92;;;2.00;;
38162;SDS011;23977;53.078;18.248;2023-07-24T21:31:11;4.25;;;2.22;;
38162;SDS011;23977;53.078;18.248;2023-07-24T21:33:38;5.45;;;2.05;;
38162;SDS011;23977;53.078;18.248;2023-07-24T21:36:05;3.42;;;2.20;;
38162;SDS011;23977;53.078;18.248;2023-07-24T21:38:31;3.85;;;2.05;;
38162;SDS011;23977;53.078;18.248;2023-07-24T21:40:57;3.97;;;2.20;;
38162;SDS011;23977;53.078;18.248;2023-07-24T21:43:23;4.88;;;2.15;;
38162;SDS011;23977;53.078;18.248;2023-07-24T21:45:49;4.28;;;2.10;;
38162;SDS011;23977;53.078;18.248;2023-07-24T21:48:17;5.43;;;2.20;;
38162;SDS011;23977;53.078;18.248;2023-07-24T21:50:46;4.20;;;2.15;;
38162;SDS011;23977;53.078;18.248;2023-07-24T21:53:18;4.10;;;2.28;;
38162;SDS011;23977;53.078;18.248;2023-07-24T21:55:44;3.97;;;2.13;;
38162;SDS011;23977;53.078;18.248;2023-07-24T21:58:10;4.75;;;2.10;;
38162;SDS011;23977;53.078;18.248;2023-07-24T22:00:36;3.35;;;1.95;;
38162;SDS011;23977;53.078;18.248;2023-07-24T22:03:03;4.28;;;1.90;;
38162;SDS011;23977;53.078;18.248;2023-07-24T22:05:29;4.38;;;2.13;;
38162;SDS011;23977;53.078;18.248;2023-07-24T22:07:56;4.70;;;2.33;;
38162;SDS011;23977;53.078;18.248;2023-07-24T22:10:21;3.70;;;2.30;;
38162;SDS011;23977;53.078;18.248;2023-07-24T22:12:48;5.07;;;2.22;;
38162;SDS011;23977;53.078;18.248;2023-07-24T22:15:13;6.35;;;2.22;;